Ana Sayfa
METAR-TAF:

METAR-TAF

Havaalanları :

King Cove, Alaska, Amerika Birleşik Devletleri

Enlem: 55-06-59N, Boylam: 162-15-58W, yükseklik: 47 m

Güncel hava durumu gözlemi

Rapor saat 03:56 UTC de 38 dakika önce yapıldı.
Rüzgar doğudan 4 kt
Sıcaklık 3°C
Nem 87%
Basınç 1013 hPa
1300 ft yükseklikte çok bulutlu

METAR: PAVC 010356Z AUTO 08004KT OVC013 03/01 A2991 RMK AO2 SLP130 T00330011 PWINO $

Saat: 20:34 (04:34 UTC)


TAF: eksik

4.000'den fazla havaalanı için hava durumu gözlemleri ve tahminleri (METAR ve TAF raporları).

Kullanılabilir istasyonlar harita üzerinde sarı ve kırmızı noktalarla gösterilir.

İstasyonun adını görmek için fareyi noktanın üzerinde gezdirin.

Sonrasında hava gözlem ve tahminlerini görmek için tıklayın.

Haritayı değiştirmek için: yaklaştırmak için siyah artı işaretli yeşil düğmeye ve uzaklaştırmak için de eksi işaretli düğmeye hızla tıklayın; bitişik haritalar için yeşil okları kullanın.


METAR-TAF: